createdAt,value
2023-01-30T00:01:48.352Z,9.43
2023-01-30T00:04:17.354Z,9.23
2023-01-30T00:06:46.781Z,9.80
2023-01-30T00:09:15.551Z,9.90
2023-01-30T00:11:43.307Z,9.47
2023-01-30T00:14:11.049Z,10.90
2023-01-30T00:16:38.923Z,13.10
2023-01-30T00:19:06.714Z,11.67
2023-01-30T00:21:34.467Z,10.40
2023-01-30T00:24:03.512Z,13.60
2023-01-30T00:26:31.336Z,10.37
2023-01-30T00:28:59.081Z,8.60
2023-01-30T00:31:27.005Z,10.40
2023-01-30T00:33:54.715Z,8.87
2023-01-30T00:36:22.435Z,9.70
2023-01-30T00:38:50.143Z,9.20
2023-01-30T00:41:19.238Z,10.10
2023-01-30T00:44:04.644Z,11.33
2023-01-30T00:46:52.432Z,11.63
2023-01-30T00:49:20.194Z,10.83
2023-01-30T00:51:48.559Z,9.80
2023-01-30T00:54:16.266Z,11.30
2023-01-30T00:56:45.317Z,10.73
2023-01-30T00:59:13.089Z,11.60
2023-01-30T01:01:40.841Z,8.83
2023-01-30T01:04:10.500Z,10.33
2023-01-30T01:06:38.363Z,8.90
2023-01-30T01:09:06.246Z,9.80
2023-01-30T01:11:34.209Z,9.50
2023-01-30T01:14:05.941Z,9.97
2023-01-30T01:16:34.667Z,9.60
2023-01-30T01:19:02.894Z,10.67
2023-01-30T01:21:30.836Z,9.80
2023-01-30T01:24:01.148Z,10.53
2023-01-30T01:26:29.294Z,11.40
2023-01-30T01:28:57.869Z,11.10
2023-01-30T01:31:27.580Z,9.43
2023-01-30T01:33:55.396Z,11.17
2023-01-30T01:36:50.279Z,11.77
2023-01-30T01:39:11.208Z,9.33
2023-01-30T01:41:38.079Z,11.27
2023-01-30T01:44:07.617Z,9.70
2023-01-30T01:46:39.651Z,10.53
2023-01-30T01:49:13.698Z,10.37
2023-01-30T01:51:47.435Z,10.20
2023-01-30T01:54:19.204Z,11.17
2023-01-30T01:56:49.496Z,10.57
2023-01-30T01:59:26.239Z,10.93
2023-01-30T02:01:58.673Z,10.93
2023-01-30T02:04:42.328Z,10.60
2023-01-30T02:07:10.500Z,10.77
2023-01-30T02:09:38.416Z,13.50
2023-01-30T02:12:06.827Z,11.23
2023-01-30T02:14:35.889Z,10.83
2023-01-30T02:17:05.493Z,11.63
2023-01-30T02:19:43.289Z,11.80
2023-01-30T02:22:37.689Z,10.03
2023-01-30T02:25:24.215Z,10.40
2023-01-30T02:28:31.246Z,11.53
2023-01-30T02:31:28.490Z,9.77
2023-01-30T02:34:09.021Z,9.70
2023-01-30T02:36:47.519Z,8.40
2023-01-30T02:39:22.052Z,8.70
2023-01-30T02:41:57.583Z,9.23
2023-01-30T02:44:31.151Z,8.67
2023-01-30T02:47:05.008Z,8.35
2023-01-30T02:49:37.646Z,9.37
2023-01-30T02:52:07.904Z,8.43
2023-01-30T02:54:35.760Z,6.87
2023-01-30T02:57:03.507Z,7.77
2023-01-30T02:59:35.360Z,7.43
2023-01-30T03:02:19.478Z,6.63
2023-01-30T03:05:02.717Z,5.93
2023-01-30T03:07:42.209Z,6.60
2023-01-30T03:10:19.717Z,7.03
2023-01-30T03:12:52.420Z,6.70
2023-01-30T03:15:29.211Z,6.83
2023-01-30T03:17:59.046Z,7.67
2023-01-30T03:20:26.819Z,7.27
2023-01-30T03:22:55.132Z,7.30
2023-01-30T03:25:26.563Z,6.90
2023-01-30T03:27:56.312Z,6.60
2023-01-30T03:30:26.106Z,8.40
2023-01-30T03:32:53.847Z,8.40
2023-01-30T03:35:22.979Z,7.47
2023-01-30T03:37:51.136Z,8.50
2023-01-30T03:40:19.175Z,8.60
2023-01-30T03:42:46.898Z,8.50
2023-01-30T03:45:14.762Z,8.73
2023-01-30T03:47:42.567Z,8.37
2023-01-30T03:50:11.763Z,8.60
2023-01-30T03:52:40.842Z,9.00
2023-01-30T03:55:09.563Z,9.63
2023-01-30T03:57:37.427Z,9.17
2023-01-30T04:00:05.965Z,8.43
2023-01-30T04:02:33.867Z,8.97
2023-01-30T04:05:01.593Z,7.93
2023-01-30T04:07:30.590Z,8.83
2023-01-30T04:09:59.685Z,8.33
2023-01-30T04:12:27.795Z,6.97
2023-01-30T04:14:55.594Z,6.63
2023-01-30T04:17:23.328Z,7.00
2023-01-30T04:19:51.050Z,7.27
2023-01-30T04:22:18.784Z,7.50
2023-01-30T04:24:46.557Z,7.10
2023-01-30T04:27:16.759Z,6.87
2023-01-30T04:29:44.487Z,7.33
2023-01-30T04:32:12.218Z,7.40
2023-01-30T04:34:39.976Z,5.80
2023-01-30T04:37:07.674Z,6.10
2023-01-30T04:39:35.483Z,5.83
2023-01-30T04:42:03.231Z,6.30
2023-01-30T04:44:32.280Z,5.40
2023-01-30T04:47:00.000Z,4.47
2023-01-30T04:49:28.212Z,5.30
2023-01-30T04:51:55.915Z,4.80
2023-01-30T04:54:23.799Z,3.73
2023-01-30T04:56:51.522Z,4.30
2023-01-30T04:59:19.350Z,4.10
2023-01-30T05:01:48.434Z,3.97
2023-01-30T05:04:16.230Z,3.30
2023-01-30T05:06:43.974Z,3.83
2023-01-30T05:09:11.735Z,3.40
2023-01-30T05:11:39.662Z,3.20
2023-01-30T05:14:07.604Z,2.80
2023-01-30T05:16:35.713Z,2.73
2023-01-30T05:19:04.823Z,2.33
2023-01-30T05:21:32.643Z,2.40
2023-01-30T05:24:00.448Z,2.07
2023-01-30T05:26:28.218Z,2.00
2023-01-30T05:28:57.187Z,2.00
2023-01-30T05:31:25.550Z,1.60
2023-01-30T05:33:54.041Z,1.97
2023-01-30T05:36:24.639Z,1.93
2023-01-30T05:38:52.522Z,2.10
2023-01-30T05:41:20.446Z,1.80
2023-01-30T05:43:51.202Z,1.80
2023-01-30T05:46:19.286Z,1.70
2023-01-30T05:48:47.392Z,1.80
2023-01-30T05:51:20.548Z,1.53
2023-01-30T05:53:49.995Z,2.00
2023-01-30T05:56:18.711Z,2.17
2023-01-30T05:58:51.740Z,1.93
2023-01-30T06:01:19.823Z,1.50
2023-01-30T06:03:47.632Z,1.83
2023-01-30T06:06:15.805Z,1.87
2023-01-30T06:08:43.779Z,1.50
2023-01-30T06:11:14.451Z,1.53
2023-01-30T06:13:42.912Z,1.37
2023-01-30T06:16:12.802Z,1.90
2023-01-30T06:18:40.775Z,2.00
2023-01-30T06:21:09.406Z,1.43
2023-01-30T06:23:37.269Z,1.60
2023-01-30T06:26:07.426Z,1.80
2023-01-30T06:28:39.277Z,1.50
2023-01-30T06:31:08.367Z,2.00
2023-01-30T06:33:36.302Z,2.10
2023-01-30T06:36:04.396Z,2.70
2023-01-30T06:38:32.189Z,2.50
2023-01-30T06:40:59.956Z,2.80
2023-01-30T06:43:27.702Z,3.00
2023-01-30T06:45:59.044Z,3.50
2023-01-30T06:48:26.801Z,2.67
2023-01-30T06:50:54.553Z,3.10
2023-01-30T06:53:25.204Z,2.73
2023-01-30T06:55:52.912Z,3.00
2023-01-30T06:58:20.788Z,3.20
2023-01-30T07:00:48.476Z,3.20
2023-01-30T07:03:18.968Z,3.87
2023-01-30T07:05:48.489Z,3.67
2023-01-30T07:08:17.880Z,3.00
2023-01-30T07:10:46.054Z,3.57
2023-01-30T07:13:14.135Z,3.57
2023-01-30T07:15:42.091Z,3.70
2023-01-30T07:18:09.840Z,3.47
2023-01-30T07:20:38.934Z,2.97
2023-01-30T07:23:06.654Z,3.27
2023-01-30T07:25:34.384Z,3.90
2023-01-30T07:28:03.739Z,3.57
2023-01-30T07:30:36.080Z,3.53
2023-01-30T07:33:05.954Z,3.33
2023-01-30T07:35:36.307Z,3.23
2023-01-30T07:38:06.277Z,3.37
2023-01-30T07:40:34.390Z,3.60
2023-01-30T07:43:03.581Z,3.83
2023-01-30T07:45:37.066Z,3.53
2023-01-30T07:48:04.984Z,5.20
2023-01-30T07:50:32.945Z,4.33
2023-01-30T07:53:03.187Z,4.30
2023-01-30T07:55:32.287Z,4.70
2023-01-30T07:58:00.152Z,4.97
2023-01-30T08:00:28.474Z,4.40
2023-01-30T08:02:56.236Z,4.87
2023-01-30T08:05:24.009Z,5.10
2023-01-30T08:07:52.871Z,5.00
2023-01-30T08:10:21.087Z,5.30
2023-01-30T08:12:52.526Z,4.33
2023-01-30T08:15:22.759Z,4.00
2023-01-30T08:17:55.957Z,3.30
2023-01-30T08:20:23.969Z,3.13
2023-01-30T08:22:51.688Z,3.07
2023-01-30T08:25:19.561Z,3.17
2023-01-30T08:27:47.341Z,2.90
2023-01-30T08:30:17.041Z,3.27
2023-01-30T08:32:45.084Z,3.80
2023-01-30T08:35:13.061Z,4.33
2023-01-30T08:37:41.104Z,3.40
2023-01-30T08:40:10.429Z,3.10
2023-01-30T08:42:38.165Z,2.90
2023-01-30T08:45:06.978Z,2.90
2023-01-30T08:47:36.253Z,3.53
2023-01-30T08:50:04.361Z,4.77
2023-01-30T08:52:33.290Z,3.37
2023-01-30T08:55:01.040Z,4.20
2023-01-30T08:57:28.801Z,5.17
2023-01-30T08:59:56.609Z,2.97
2023-01-30T09:02:24.616Z,2.73
2023-01-30T09:04:53.701Z,2.60
2023-01-30T09:07:21.413Z,2.80
2023-01-30T09:09:49.473Z,3.40
2023-01-30T09:12:17.332Z,2.63
2023-01-30T09:14:45.152Z,2.33
2023-01-30T09:17:12.959Z,2.40
2023-01-30T09:19:40.736Z,2.43
2023-01-30T09:22:09.825Z,2.33
2023-01-30T09:24:37.598Z,5.30
2023-01-30T09:27:05.513Z,2.50
2023-01-30T09:29:33.263Z,2.40
2023-01-30T09:32:00.997Z,2.47
2023-01-30T09:34:29.415Z,2.70
2023-01-30T09:36:57.173Z,2.90
2023-01-30T09:39:26.363Z,2.23
2023-01-30T09:42:23.897Z,3.73
2023-01-30T09:45:21.169Z,2.47
2023-01-30T09:48:01.777Z,2.40
2023-01-30T09:50:44.915Z,2.70
2023-01-30T09:53:19.422Z,3.57
2023-01-30T09:55:49.223Z,3.40
2023-01-30T09:58:20.238Z,4.37
2023-01-30T10:00:50.481Z,3.03
2023-01-30T10:03:21.126Z,2.90
2023-01-30T10:05:51.236Z,2.87
2023-01-30T10:08:36.845Z,3.10
2023-01-30T10:11:18.329Z,2.70
2023-01-30T10:13:58.715Z,3.47
2023-01-30T10:16:29.674Z,2.87
2023-01-30T10:19:13.379Z,2.47
2023-01-30T10:21:51.039Z,2.73
2023-01-30T10:24:32.149Z,2.67
2023-01-30T10:27:03.595Z,2.47
2023-01-30T10:29:36.966Z,2.23
2023-01-30T10:32:08.281Z,2.30
2023-01-30T10:34:39.834Z,2.90
2023-01-30T10:37:10.812Z,2.33
2023-01-30T10:39:55.227Z,3.57
2023-01-30T10:42:32.759Z,2.10
2023-01-30T10:45:10.974Z,2.50
2023-01-30T10:47:48.427Z,2.87
2023-01-30T10:50:19.033Z,2.73
2023-01-30T10:52:57.819Z,2.37
2023-01-30T10:55:37.632Z,2.70
2023-01-30T10:58:16.241Z,3.10
2023-01-30T11:00:47.935Z,2.93
2023-01-30T11:03:32.543Z,2.60
2023-01-30T11:06:04.088Z,2.80
2023-01-30T11:08:34.087Z,3.20
2023-01-30T11:11:02.697Z,2.57
2023-01-30T11:13:33.599Z,2.90
2023-01-30T11:16:06.033Z,2.73
2023-01-30T11:19:18.387Z,2.73
2023-01-30T11:21:32.095Z,2.80
2023-01-30T11:24:14.175Z,3.00
2023-01-30T11:26:47.736Z,3.50
2023-01-30T11:29:27.137Z,3.23
2023-01-30T11:31:55.636Z,2.83
2023-01-30T11:34:25.105Z,2.77
2023-01-30T11:36:52.923Z,2.90
2023-01-30T11:39:29.039Z,3.57
2023-01-30T11:42:04.636Z,3.07
2023-01-30T11:44:35.614Z,2.93
2023-01-30T11:47:07.993Z,2.90
2023-01-30T11:49:46.423Z,2.37
2023-01-30T11:52:27.135Z,2.90
2023-01-30T11:55:00.940Z,3.50
2023-01-30T11:57:28.952Z,2.37
2023-01-30T12:00:01.393Z,2.97
2023-01-30T12:02:33.157Z,2.23
2023-01-30T12:05:03.307Z,1.97
2023-01-30T12:07:33.147Z,2.20
2023-01-30T12:10:01.172Z,2.43
2023-01-30T12:12:32.417Z,1.97
2023-01-30T12:15:22.882Z,2.00
2023-01-30T12:17:59.303Z,2.40
2023-01-30T12:20:38.836Z,2.37
2023-01-30T12:23:14.060Z,2.57
2023-01-30T12:25:49.269Z,2.27
2023-01-30T12:28:28.525Z,2.67
2023-01-30T12:31:02.740Z,2.72
2023-01-30T12:33:34.732Z,2.77
2023-01-30T12:36:14.504Z,2.50
2023-01-30T12:39:05.803Z,2.30
2023-01-30T12:41:45.378Z,2.47
2023-01-30T12:44:32.287Z,2.83
2023-01-30T12:47:25.173Z,2.20
2023-01-30T12:50:16.766Z,3.73
2023-01-30T12:53:01.668Z,2.90
2023-01-30T12:55:41.387Z,2.93
2023-01-30T12:58:15.632Z,3.53
2023-01-30T13:01:01.800Z,3.87
2023-01-30T13:03:38.820Z,3.80
2023-01-30T13:06:23.044Z,3.20
2023-01-30T13:09:04.322Z,2.63
2023-01-30T13:11:45.755Z,3.57
2023-01-30T13:14:22.084Z,2.57
2023-01-30T13:17:06.828Z,3.30
2023-01-30T13:19:44.732Z,3.53
2023-01-30T13:22:22.650Z,2.97
2023-01-30T13:24:59.543Z,2.60
2023-01-30T13:27:29.898Z,3.00
2023-01-30T13:30:00.228Z,2.73
2023-01-30T13:32:36.716Z,3.20
2023-01-30T13:35:11.959Z,3.83
2023-01-30T13:37:39.835Z,3.07
2023-01-30T13:40:17.207Z,2.77
2023-01-30T13:42:49.782Z,2.63
2023-01-30T13:45:20.942Z,2.43
2023-01-30T13:47:57.408Z,2.30
2023-01-30T13:50:42.799Z,3.97
2023-01-30T13:53:16.528Z,2.20
2023-01-30T13:55:51.033Z,3.87
2023-01-30T13:58:43.701Z,2.50
2023-01-30T14:01:12.744Z,2.60
2023-01-30T14:03:41.034Z,2.70
2023-01-30T14:06:36.893Z,2.40
2023-01-30T14:09:18.793Z,3.00
2023-01-30T14:11:50.447Z,4.00
2023-01-30T14:14:28.409Z,3.27
2023-01-30T14:16:58.875Z,3.30
2023-01-30T14:19:36.949Z,2.80
2023-01-30T14:22:19.977Z,3.63
2023-01-30T14:25:46.149Z,2.97
2023-01-30T14:28:51.082Z,4.97
2023-01-30T14:31:51.474Z,2.53
2023-01-30T14:34:50.294Z,2.57
2023-01-30T14:37:31.405Z,2.87
2023-01-30T14:39:59.751Z,2.90
2023-01-30T14:42:30.020Z,2.83
2023-01-30T14:45:03.795Z,2.90
2023-01-30T14:47:37.884Z,2.63
2023-01-30T14:50:21.608Z,2.53
2023-01-30T14:52:55.725Z,3.43
2023-01-30T14:55:29.357Z,2.30
2023-01-30T14:58:01.228Z,3.23
2023-01-30T15:00:32.357Z,2.30
2023-01-30T15:03:02.894Z,3.10
2023-01-30T15:05:33.754Z,2.43
2023-01-30T15:08:10.555Z,3.33
2023-01-30T15:11:08.364Z,2.47
2023-01-30T15:14:01.865Z,2.90
2023-01-30T15:16:51.257Z,2.07
2023-01-30T15:19:40.997Z,3.73
2023-01-30T15:22:20.243Z,2.60
2023-01-30T15:25:08.849Z,2.63
2023-01-30T15:27:49.635Z,3.63
2023-01-30T15:30:26.525Z,2.60
2023-01-30T15:33:19.871Z,2.80
2023-01-30T15:35:50.566Z,2.50
2023-01-30T15:38:28.220Z,2.43
2023-01-30T15:41:00.175Z,2.40
2023-01-30T15:44:02.309Z,2.53
2023-01-30T15:46:39.880Z,3.40
2023-01-30T15:49:41.851Z,2.90
2023-01-30T15:52:16.929Z,3.17
2023-01-30T15:54:51.138Z,3.50
2023-01-30T15:57:26.655Z,2.90
2023-01-30T15:59:58.832Z,2.53
2023-01-30T16:02:30.768Z,2.40
2023-01-30T16:05:07.592Z,2.73
2023-01-30T16:07:35.384Z,2.77
2023-01-30T16:10:19.211Z,3.73
2023-01-30T16:12:48.966Z,2.33
2023-01-30T16:15:20.839Z,2.80
2023-01-30T16:18:01.107Z,2.90
2023-01-30T16:20:30.945Z,3.10
2023-01-30T16:22:58.820Z,2.70
2023-01-30T16:25:29.767Z,3.17
2023-01-30T16:27:58.900Z,3.40
2023-01-30T16:30:29.787Z,2.70
2023-01-30T16:32:58.213Z,3.17
2023-01-30T16:35:31.782Z,3.23
2023-01-30T16:38:01.141Z,3.60
2023-01-30T16:40:31.901Z,4.93
2023-01-30T16:43:02.669Z,2.77
2023-01-30T16:46:14.294Z,3.17
2023-01-30T16:48:44.419Z,2.77
2023-01-30T16:51:19.019Z,2.97
2023-01-30T16:53:53.664Z,3.30
2023-01-30T16:56:21.772Z,3.77
2023-01-30T16:58:54.248Z,2.83
2023-01-30T17:01:24.033Z,4.10
2023-01-30T17:04:01.931Z,4.00
2023-01-30T17:06:37.146Z,3.57
2023-01-30T17:09:07.736Z,4.30
2023-01-30T17:11:37.442Z,4.30
2023-01-30T17:14:20.581Z,4.37
2023-01-30T17:16:48.770Z,3.20
2023-01-30T17:19:16.485Z,3.80
2023-01-30T17:21:46.530Z,3.00
2023-01-30T17:24:16.634Z,3.00
2023-01-30T17:26:44.739Z,3.70
2023-01-30T17:29:23.441Z,3.87
2023-01-30T17:31:58.561Z,3.03
2023-01-30T17:34:28.715Z,3.10
2023-01-30T17:36:56.648Z,3.03
2023-01-30T17:39:26.711Z,3.20
2023-01-30T17:41:54.417Z,4.23
2023-01-30T17:44:23.777Z,3.03
2023-01-30T17:46:51.501Z,3.30
2023-01-30T17:49:21.658Z,6.33
2023-01-30T17:51:50.263Z,4.90
2023-01-30T17:54:18.614Z,3.17
2023-01-30T17:56:48.954Z,3.03
2023-01-30T17:59:19.037Z,3.80
2023-01-30T18:01:49.816Z,6.87
2023-01-30T18:04:19.104Z,4.40
2023-01-30T18:06:50.264Z,6.43
2023-01-30T18:09:20.503Z,4.50
2023-01-30T18:11:48.887Z,3.00
2023-01-30T18:14:17.702Z,10.10
2023-01-30T18:16:45.550Z,3.20
2023-01-30T18:19:17.708Z,7.43
2023-01-30T18:21:46.076Z,5.30
2023-01-30T18:24:14.818Z,8.50
2023-01-30T18:26:43.813Z,9.90
2023-01-30T18:29:12.347Z,8.83
2023-01-30T18:31:43.741Z,8.47
2023-01-30T18:34:16.471Z,4.97
2023-01-30T18:36:44.275Z,4.30
2023-01-30T18:39:12.797Z,4.70
2023-01-30T18:41:40.562Z,3.83
2023-01-30T18:44:08.295Z,3.03
2023-01-30T18:46:36.038Z,3.67
2023-01-30T18:49:03.898Z,2.90
2023-01-30T18:51:34.302Z,2.90
2023-01-30T18:54:02.569Z,3.17
2023-01-30T18:56:32.917Z,3.73
2023-01-30T18:59:03.739Z,4.07
2023-01-30T19:01:34.153Z,3.37
2023-01-30T19:04:03.501Z,3.03
2023-01-30T19:06:32.581Z,2.50
2023-01-30T19:09:00.388Z,4.70
2023-01-30T19:11:45.617Z,3.50
2023-01-30T19:14:14.263Z,4.10
2023-01-30T19:16:42.435Z,3.10
2023-01-30T19:19:10.992Z,2.83
2023-01-30T19:21:40.302Z,2.73
2023-01-30T19:24:12.343Z,3.83
2023-01-30T19:26:40.354Z,3.27
2023-01-30T19:29:08.292Z,2.80
2023-01-30T19:31:36.489Z,3.80
2023-01-30T19:34:06.106Z,3.60
2023-01-30T19:36:35.139Z,3.00
2023-01-30T19:39:06.092Z,4.03
2023-01-30T19:41:35.467Z,3.03
2023-01-30T19:44:05.028Z,2.77
2023-01-30T19:46:33.241Z,3.90
2023-01-30T19:49:01.125Z,4.20
2023-01-30T19:51:30.637Z,4.00
2023-01-30T19:54:00.715Z,2.90
2023-01-30T19:56:30.373Z,3.30
2023-01-30T19:58:59.696Z,3.60
2023-01-30T20:01:30.425Z,2.97
2023-01-30T20:03:58.965Z,4.10
2023-01-30T20:06:29.288Z,4.33
2023-01-30T20:09:00.951Z,3.63
2023-01-30T20:11:30.802Z,4.00
2023-01-30T20:14:01.279Z,4.00
2023-01-30T20:16:31.156Z,3.67
2023-01-30T20:19:00.222Z,3.57
2023-01-30T20:21:29.139Z,3.73
2023-01-30T20:23:57.322Z,2.97
2023-01-30T20:26:27.240Z,3.70
2023-01-30T20:28:57.124Z,4.03
2023-01-30T20:31:27.174Z,3.63
2023-01-30T20:33:57.370Z,4.87
2023-01-30T20:36:27.034Z,3.90
2023-01-30T20:38:56.459Z,3.30
2023-01-30T20:41:25.747Z,3.40
2023-01-30T20:43:57.251Z,5.37
2023-01-30T20:46:27.640Z,3.83
2023-01-30T20:48:57.091Z,4.40
2023-01-30T20:51:26.342Z,3.93
2023-01-30T20:53:55.732Z,3.20
2023-01-30T20:56:25.283Z,3.70
2023-01-30T20:58:53.226Z,4.27
2023-01-30T21:01:24.041Z,4.70
2023-01-30T21:03:53.268Z,3.50
2023-01-30T21:06:41.439Z,3.57
2023-01-30T21:09:12.521Z,3.90
2023-01-30T21:11:40.620Z,3.47
2023-01-30T21:14:08.385Z,3.40
2023-01-30T21:16:38.402Z,3.07
2023-01-30T21:19:08.183Z,2.97
2023-01-30T21:21:38.153Z,3.20
2023-01-30T21:24:09.216Z,3.20
2023-01-30T21:26:39.801Z,3.90
2023-01-30T21:29:09.215Z,3.70
2023-01-30T21:31:39.366Z,3.50
2023-01-30T21:34:08.139Z,4.40
2023-01-30T21:36:36.743Z,3.10
2023-01-30T21:39:22.767Z,3.87
2023-01-30T21:42:08.137Z,4.40
2023-01-30T21:44:38.097Z,2.50
2023-01-30T21:47:08.674Z,3.27
2023-01-30T21:49:37.079Z,3.70
2023-01-30T21:52:05.309Z,3.77
2023-01-30T21:54:33.117Z,3.40
2023-01-30T21:57:04.253Z,3.83
2023-01-30T21:59:32.453Z,4.50
2023-01-30T22:02:01.615Z,2.90
2023-01-30T22:04:31.427Z,3.07
2023-01-30T22:06:59.142Z,3.40
2023-01-30T22:09:26.953Z,2.67
2023-01-30T22:11:54.972Z,2.77
2023-01-30T22:14:23.951Z,5.40
2023-01-30T22:16:51.791Z,4.53
2023-01-30T22:19:19.555Z,3.50
2023-01-30T22:21:48.769Z,3.10
2023-01-30T22:24:16.554Z,4.50
2023-01-30T22:26:44.453Z,2.97
2023-01-30T22:29:12.367Z,2.70
2023-01-30T22:31:41.193Z,4.20
2023-01-30T22:34:08.962Z,4.13
2023-01-30T22:36:37.527Z,3.27
2023-01-30T22:39:07.535Z,3.23
2023-01-30T22:41:37.185Z,3.07
2023-01-30T22:44:07.273Z,3.10
2023-01-30T22:46:37.490Z,3.80
2023-01-30T22:49:07.415Z,5.37
2023-01-30T22:51:37.332Z,3.70
2023-01-30T22:54:08.668Z,3.50
2023-01-30T22:56:38.548Z,2.60
2023-01-30T22:59:07.171Z,3.30
2023-01-30T23:01:37.102Z,3.50
2023-01-30T23:04:07.212Z,3.90
2023-01-30T23:06:36.926Z,3.27
2023-01-30T23:09:07.614Z,3.63
2023-01-30T23:11:37.334Z,3.80
2023-01-30T23:14:13.686Z,3.70
2023-01-30T23:16:45.928Z,3.30
2023-01-30T23:19:13.889Z,2.27
2023-01-30T23:21:46.884Z,3.47
2023-01-30T23:24:19.231Z,4.63
2023-01-30T23:26:51.633Z,2.17
2023-01-30T23:29:21.327Z,2.33
2023-01-30T23:31:50.415Z,1.83
2023-01-30T23:34:20.279Z,2.37
2023-01-30T23:36:48.301Z,1.83
2023-01-30T23:39:17.947Z,2.47
2023-01-30T23:41:45.787Z,1.70
2023-01-30T23:44:13.566Z,2.33
2023-01-30T23:46:43.020Z,2.30
2023-01-30T23:49:12.585Z,3.00
2023-01-30T23:51:42.963Z,2.97
2023-01-30T23:54:11.646Z,2.80
2023-01-30T23:56:43.125Z,3.70
2023-01-30T23:59:11.186Z,2.20
